Time;durP1;ratioP1;P1;durP2;ratioP2;P2;SDS_P1;SDS_P2;PMS_P1;PMS_P2;Temp;Humidity;BMP_temperature;BMP_pressure;BME280_temperature;BME280_humidity;BME280_pressure;Samples;Min_cycle;Max_cycle;Signal;HPM_P1;HPM_P2
2024/01/29 00:00:16;;;;;;;5.22;3.58;;;5.60;99.90;;;;;;5145650;27;20701;-77
2024/01/29 00:02:45;;;;;;;5.65;3.55;;;5.60;99.90;;;;;;5142970;27;20046;-76
2024/01/29 00:05:11;;;;;;;4.53;3.20;;;5.60;99.90;;;;;;5144987;27;20427;-76
2024/01/29 00:07:36;;;;;;;5.40;3.60;;;5.60;99.90;;;;;;5146748;27;20027;-76
2024/01/29 00:10:03;;;;;;;4.90;3.10;;;5.60;99.90;;;;;;5146841;27;20612;-77
2024/01/29 00:12:28;;;;;;;4.72;3.15;;;5.50;99.90;;;;;;5145288;27;20046;-76
2024/01/29 00:14:54;;;;;;;5.27;3.10;;;5.50;99.90;;;;;;5146727;27;20127;-77
2024/01/29 00:17:19;;;;;;;4.77;3.20;;;5.50;99.90;;;;;;5145251;27;20281;-77
2024/01/29 00:19:45;;;;;;;5.13;3.70;;;5.50;99.90;;;;;;5143285;27;20300;-77
2024/01/29 00:22:11;;;;;;;6.47;3.53;;;5.40;99.90;;;;;;5142509;27;20063;-76
2024/01/29 00:24:36;;;;;;;5.72;3.28;;;5.40;99.90;;;;;;5144665;27;20047;-76
2024/01/29 00:27:02;;;;;;;6.60;3.40;;;5.40;99.90;;;;;;5145024;27;20038;-77
2024/01/29 00:29:27;;;;;;;7.50;3.80;;;5.40;99.90;;;;;;5145053;27;20445;-77
2024/01/29 00:31:53;;;;;;;6.20;3.47;;;5.40;99.90;;;;;;5146206;27;20042;-76
2024/01/29 00:34:19;;;;;;;4.55;2.95;;;5.40;99.90;;;;;;5136039;27;20147;-76
2024/01/29 00:36:46;;;;;;;5.60;3.08;;;5.40;99.90;;;;;;5129999;27;20176;-76
2024/01/29 00:39:13;;;;;;;4.70;3.30;;;5.40;99.90;;;;;;5132369;27;20040;-76
2024/01/29 00:41:38;;;;;;;5.35;3.35;;;5.40;99.90;;;;;;5130910;27;20043;-76
2024/01/29 00:44:04;;;;;;;6.60;3.63;;;5.40;99.90;;;;;;5131306;27;20080;-77
2024/01/29 00:46:30;;;;;;;5.25;3.22;;;5.30;99.90;;;;;;5130873;27;20460;-76
2024/01/29 00:48:56;;;;;;;4.88;3.28;;;5.40;99.90;;;;;;5130653;27;20035;-76
2024/01/29 00:51:21;;;;;;;6.53;3.17;;;5.30;99.90;;;;;;5132126;27;20552;-76
2024/01/29 00:53:47;;;;;;;12.38;3.28;;;5.30;99.90;;;;;;5129536;27;20127;-76
2024/01/29 00:56:13;;;;;;;5.70;3.25;;;5.30;99.90;;;;;;5131898;27;20042;-77
2024/01/29 00:58:43;;;;;;;6.78;3.28;;;5.30;99.90;;;;;;5131126;27;20096;-76
2024/01/29 01:01:09;;;;;;;6.03;3.45;;;5.30;99.90;;;;;;5131830;27;20042;-76
2024/01/29 01:03:34;;;;;;;5.95;3.30;;;5.20;99.90;;;;;;5129991;27;20050;-77
2024/01/29 01:06:00;;;;;;;5.27;3.00;;;5.20;99.90;;;;;;5132030;27;20038;-76
2024/01/29 01:08:25;;;;;;;7.53;4.55;;;5.20;99.90;;;;;;5131778;27;20682;-77
2024/01/29 01:10:51;;;;;;;5.22;3.00;;;5.20;99.90;;;;;;5129012;27;20054;-76
2024/01/29 01:13:17;;;;;;;5.47;3.17;;;5.10;99.90;;;;;;5132006;27;20035;-77
2024/01/29 01:15:42;;;;;;;6.47;3.23;;;5.10;99.90;;;;;;5130236;27;20327;-77
2024/01/29 01:18:08;;;;;;;6.10;3.55;;;5.10;99.90;;;;;;5129784;27;20290;-77
2024/01/29 01:20:34;;;;;;;4.47;3.10;;;5.10;99.90;;;;;;5130277;27;20047;-77
2024/01/29 01:23:01;;;;;;;5.25;3.25;;;5.00;99.90;;;;;;5115252;27;20086;-77
2024/01/29 01:25:27;;;;;;;6.13;3.30;;;5.00;99.90;;;;;;5109561;28;20047;-77
2024/01/29 01:27:53;;;;;;;5.25;3.30;;;4.90;99.90;;;;;;5092633;28;20044;-77
2024/01/29 01:30:20;;;;;;;5.40;3.20;;;4.90;99.90;;;;;;5143897;27;20039;-77
2024/01/29 01:32:46;;;;;;;4.82;3.08;;;4.90;99.90;;;;;;5110384;28;20479;-77
2024/01/29 01:35:12;;;;;;;7.20;3.00;;;4.90;99.90;;;;;;5143789;27;20112;-77
2024/01/29 01:37:37;;;;;;;5.10;3.10;;;4.80;99.90;;;;;;5110813;28;20428;-77
2024/01/29 01:40:04;;;;;;;6.00;3.25;;;4.80;99.90;;;;;;5162908;27;20498;-76
2024/01/29 01:42:30;;;;;;;6.20;3.75;;;4.80;99.90;;;;;;5129836;27;20148;-76
2024/01/29 01:44:56;;;;;;;5.88;3.38;;;4.80;99.90;;;;;;5129182;27;20050;-76
2024/01/29 01:47:22;;;;;;;4.88;3.15;;;4.80;99.90;;;;;;5110621;27;20035;-76
2024/01/29 01:49:48;;;;;;;5.80;3.50;;;4.70;99.90;;;;;;5129681;27;20042;-76
2024/01/29 01:52:16;;;;;;;5.53;3.30;;;4.70;99.90;;;;;;5164298;27;20410;-76
2024/01/29 01:54:43;;;;;;;6.82;3.40;;;4.60;99.90;;;;;;5129487;27;20050;-76
2024/01/29 01:57:09;;;;;;;4.55;3.00;;;4.70;99.90;;;;;;5129787;27;20055;-76
2024/01/29 01:59:35;;;;;;;;;;;4.60;99.90;;;;;;5131421;27;20118;-76
2024/01/29 02:02:01;;;;;;;4.45;2.90;;;4.60;99.90;;;;;;5128820;27;19929;-76
2024/01/29 02:04:27;;;;;;;5.45;3.17;;;4.60;99.90;;;;;;5130774;27;20620;-76
2024/01/29 02:06:53;;;;;;;3.70;3.00;;;4.60;99.90;;;;;;5129307;27;20474;-76
2024/01/29 02:09:19;;;;;;;7.43;3.60;;;4.60;99.90;;;;;;5129224;27;20288;-76
2024/01/29 02:11:44;;;;;;;5.47;3.35;;;4.50;99.90;;;;;;5129249;27;20043;-76
2024/01/29 02:14:10;;;;;;;5.35;3.13;;;4.50;99.90;;;;;;5130544;27;20086;-76
2024/01/29 02:16:36;;;;;;;6.03;3.40;;;4.50;99.90;;;;;;5128668;27;20070;-76
2024/01/29 02:19:06;;;;;;;4.50;3.13;;;4.50;99.90;;;;;;5129210;27;20046;-76
2024/01/29 02:21:32;;;;;;;6.32;3.53;;;4.50;99.90;;;;;;5128817;27;20051;-76
2024/01/29 02:23:57;;;;;;;5.72;3.88;;;4.50;99.90;;;;;;5129059;27;20372;-76
2024/01/29 02:26:23;;;;;;;5.13;3.20;;;4.50;99.90;;;;;;5128966;27;20046;-76
2024/01/29 02:28:48;;;;;;;4.63;3.40;;;4.40;99.90;;;;;;5128448;27;20303;-76
2024/01/29 02:31:14;;;;;;;6.30;3.90;;;4.40;99.90;;;;;;5128851;27;20462;-77
2024/01/29 02:33:40;;;;;;;4.57;3.00;;;4.40;99.90;;;;;;5130254;27;20047;-76
2024/01/29 02:36:05;;;;;;;5.80;3.30;;;4.30;99.90;;;;;;5128860;27;20403;-76
2024/01/29 02:38:31;;;;;;;5.80;3.60;;;4.30;99.90;;;;;;5128666;27;20038;-77
2024/01/29 02:40:57;;;;;;;5.23;3.33;;;4.30;99.90;;;;;;5128880;27;20035;-76
2024/01/29 02:43:22;;;;;;;4.97;3.47;;;4.20;99.90;;;;;;5128132;27;20627;-77
2024/01/29 02:45:49;;;;;;;5.20;3.42;;;4.30;99.90;;;;;;5129967;27;20050;-76
2024/01/29 02:48:14;;;;;;;;;;;4.20;99.90;;;;;;5129168;27;20399;-76
2024/01/29 02:50:40;;;;;;;7.35;3.90;;;4.20;99.90;;;;;;5129810;27;19915;-76
2024/01/29 02:53:05;;;;;;;6.28;3.63;;;4.20;99.90;;;;;;5128619;27;20066;-76
2024/01/29 02:55:31;;;;;;;6.57;3.77;;;4.20;99.90;;;;;;5128647;27;20118;-76
2024/01/29 02:57:57;;;;;;;6.07;3.92;;;4.10;99.90;;;;;;5129091;27;20272;-76
2024/01/29 03:00:22;;;;;;;7.25;3.40;;;4.10;99.90;;;;;;5127509;27;20813;-76
2024/01/29 03:02:48;;;;;;;5.97;3.50;;;4.10;99.90;;;;;;5129575;27;20054;-77
2024/01/29 03:05:13;;;;;;;4.22;3.30;;;4.00;99.90;;;;;;5162013;27;20079;-76
2024/01/29 03:07:39;;;;;;;5.20;3.10;;;4.00;99.90;;;;;;5127867;27;20043;-76
2024/01/29 03:10:05;;;;;;;5.53;3.25;;;4.00;99.90;;;;;;5127103;27;20043;-76
2024/01/29 03:12:31;;;;;;;4.43;3.38;;;4.00;99.90;;;;;;5129007;27;20054;-76
2024/01/29 03:14:56;;;;;;;5.17;3.17;;;4.00;99.90;;;;;;5126545;27;20043;-77
2024/01/29 03:17:22;;;;;;;5.35;3.35;;;4.00;99.90;;;;;;5127548;27;20142;-76
2024/01/29 03:19:47;;;;;;;5.83;3.33;;;4.00;99.90;;;;;;5128863;27;20095;-76
2024/01/29 03:22:13;;;;;;;5.53;3.23;;;4.00;99.90;;;;;;5129215;28;20150;-76
2024/01/29 03:24:39;;;;;;;6.43;3.47;;;4.00;99.90;;;;;;5125182;27;20299;-76
2024/01/29 03:27:04;;;;;;;6.20;3.90;;;4.00;99.90;;;;;;5127494;27;20027;-76
2024/01/29 03:29:30;;;;;;;6.37;3.53;;;4.00;99.90;;;;;;5126043;28;20538;-76
2024/01/29 03:31:56;;;;;;;7.03;3.77;;;4.00;99.90;;;;;;5127684;28;20297;-76
2024/01/29 03:34:21;;;;;;;5.50;3.67;;;4.00;99.90;;;;;;5127863;28;20490;-76
2024/01/29 03:36:48;;;;;;;5.07;3.47;;;4.00;99.90;;;;;;5129216;27;20031;-76
2024/01/29 03:39:13;;;;;;;;;;;4.00;99.90;;;;;;5129764;27;20085;-76
2024/01/29 03:41:39;;;;;;;5.60;3.30;;;4.00;99.90;;;;;;5127559;28;19962;-76
2024/01/29 03:44:04;;;;;;;6.30;4.30;;;3.90;99.90;;;;;;5126716;27;20068;-77
2024/01/29 03:46:30;;;;;;;6.93;3.77;;;3.90;99.90;;;;;;5129205;28;20284;-76
2024/01/29 03:48:55;;;;;;;5.25;3.38;;;3.90;99.90;;;;;;5127878;28;20107;-76
2024/01/29 03:51:21;;;;;;;10.47;4.27;;;3.90;99.90;;;;;;5128976;27;20395;-76
2024/01/29 03:53:47;;;;;;;5.00;3.50;;;3.90;99.90;;;;;;5129176;28;20300;-76
2024/01/29 03:56:12;;;;;;;6.07;3.80;;;3.90;99.90;;;;;;5127327;28;20646;-76
2024/01/29 03:58:38;;;;;;;5.05;3.38;;;3.90;99.90;;;;;;5127318;27;20469;-76
2024/01/29 04:01:04;;;;;;;6.25;3.60;;;3.80;99.90;;;;;;5127495;28;20046;-76
2024/01/29 04:03:29;;;;;;;5.60;3.73;;;3.80;99.90;;;;;;5127586;28;20130;-75
2024/01/29 04:05:55;;;;;;;6.27;3.93;;;3.80;99.90;;;;;;5128960;27;20043;-76
2024/01/29 04:08:21;;;;;;;6.83;3.97;;;3.80;99.90;;;;;;5110782;27;20289;-76
2024/01/29 04:10:47;;;;;;;6.15;4.18;;;3.80;99.90;;;;;;5131091;27;20039;-75
2024/01/29 04:13:12;;;;;;;6.53;4.20;;;3.70;99.90;;;;;;5131439;27;20054;-76
2024/01/29 04:15:38;;;;;;;6.90;3.78;;;3.70;99.90;;;;;;5120608;27;20059;-76
2024/01/29 04:18:04;;;;;;;6.27;3.73;;;3.60;99.90;;;;;;5145557;27;20046;-76
2024/01/29 04:20:29;;;;;;;7.20;3.72;;;3.60;99.90;;;;;;5145167;27;20287;-76
2024/01/29 04:22:55;;;;;;;8.23;3.83;;;3.60;99.90;;;;;;5144901;27;20043;-75
2024/01/29 04:25:21;;;;;;;8.47;4.30;;;3.50;99.90;;;;;;5111593;28;20031;-76
2024/01/29 04:27:47;;;;;;;6.55;4.00;;;3.50;99.90;;;;;;5112207;28;20406;-76
2024/01/29 04:30:13;;;;;;;6.82;3.78;;;3.50;99.90;;;;;;5112317;28;20075;-76
2024/01/29 04:32:38;;;;;;;6.32;3.70;;;3.40;99.90;;;;;;5148411;27;20799;-76
2024/01/29 04:35:04;;;;;;;6.23;4.07;;;3.40;99.90;;;;;;5131078;27;20078;-76
2024/01/29 04:37:30;;;;;;;5.80;3.40;;;3.30;99.90;;;;;;5132484;27;20143;-75
2024/01/29 04:39:55;;;;;;;9.57;4.15;;;3.40;99.90;;;;;;5131965;27;20150;-76
2024/01/29 04:42:21;;;;;;;6.90;4.37;;;3.40;99.90;;;;;;5132301;27;20391;-76
2024/01/29 04:44:47;;;;;;;5.38;3.70;;;3.40;99.90;;;;;;5132306;27;20315;-76
2024/01/29 04:47:12;;;;;;;6.28;4.15;;;3.50;99.90;;;;;;5130773;27;20050;-76
2024/01/29 04:49:38;;;;;;;6.80;4.18;;;3.50;99.90;;;;;;5129715;27;20043;-76
2024/01/29 04:52:04;;;;;;;5.85;3.92;;;3.50;99.90;;;;;;5130683;27;20070;-75
2024/01/29 04:54:30;;;;;;;8.50;4.93;;;3.50;99.90;;;;;;5130010;27;20047;-76
2024/01/29 04:56:55;;;;;;;7.25;4.40;;;3.60;99.90;;;;;;5130715;27;20043;-75
2024/01/29 04:59:21;;;;;;;5.97;3.83;;;3.60;99.90;;;;;;5132075;27;20122;-76
2024/01/29 05:01:47;;;;;;;6.83;4.10;;;3.60;99.90;;;;;;5119557;27;20341;-76
2024/01/29 05:04:12;;;;;;;8.47;4.50;;;3.60;99.90;;;;;;5128202;27;20603;-76
2024/01/29 05:06:38;;;;;;;6.53;4.27;;;3.60;99.90;;;;;;5130001;27;20288;-76
2024/01/29 05:09:03;;;;;;;7.53;4.73;;;3.60;99.90;;;;;;5129967;27;20429;-76
2024/01/29 05:11:29;;;;;;;6.07;4.10;;;3.60;99.90;;;;;;5130211;27;20042;-75
2024/01/29 05:13:55;;;;;;;7.65;4.40;;;3.70;99.90;;;;;;5131876;27;20059;-76
2024/01/29 05:16:21;;;;;;;7.50;4.53;;;3.70;99.90;;;;;;5130295;27;20047;-75
2024/01/29 05:18:47;;;;;;;4.85;3.92;;;3.70;99.90;;;;;;5131850;27;20042;-75
2024/01/29 05:21:13;;;;;;;8.55;4.43;;;3.70;99.90;;;;;;5130098;27;20043;-75
2024/01/29 05:23:39;;;;;;;5.93;4.35;;;3.70;99.90;;;;;;5129511;27;20088;-76
2024/01/29 05:26:04;;;;;;;5.90;3.90;;;3.70;99.90;;;;;;5131691;27;20042;-75
2024/01/29 05:28:30;;;;;;;7.63;4.10;;;3.70;99.90;;;;;;5131573;27;20781;-76
2024/01/29 05:30:56;;;;;;;6.80;4.15;;;3.70;99.90;;;;;;5130415;27;20285;-75
2024/01/29 05:33:22;;;;;;;5.85;4.28;;;3.70;99.90;;;;;;5131082;27;20081;-75
2024/01/29 05:35:47;;;;;;;8.07;4.85;;;3.60;99.90;;;;;;5130140;27;20369;-77
2024/01/29 05:38:13;;;;;;;5.27;3.30;;;3.60;99.90;;;;;;5128018;27;20039;-75
2024/01/29 05:40:38;;;;;;;6.10;4.30;;;3.60;99.90;;;;;;5131345;27;20284;-75
2024/01/29 05:43:04;;;;;;;6.78;4.40;;;3.60;99.90;;;;;;5129888;27;20501;-76
2024/01/29 05:45:29;;;;;;;7.03;4.47;;;3.60;99.90;;;;;;5129956;27;20510;-76
2024/01/29 05:47:55;;;;;;;6.13;4.00;;;3.60;99.90;;;;;;5129992;27;20039;-75
2024/01/29 05:50:21;;;;;;;6.80;4.50;;;3.50;99.90;;;;;;5131142;27;20100;-78
2024/01/29 05:52:46;;;;;;;6.80;3.78;;;3.50;99.90;;;;;;5130408;27;20042;-78
2024/01/29 05:55:12;;;;;;;7.63;4.50;;;3.40;99.90;;;;;;5128346;27;20035;-78
2024/01/29 05:57:38;;;;;;;7.13;3.83;;;3.40;99.90;;;;;;5129493;27;20114;-76
2024/01/29 06:00:09;;;;;;;8.30;4.43;;;3.40;99.90;;;;;;5129525;27;20050;-76
2024/01/29 06:02:34;;;;;;;6.90;4.20;;;3.40;99.90;;;;;;5112915;27;20123;-75
2024/01/29 06:05:00;;;;;;;7.78;4.32;;;3.50;99.90;;;;;;5108858;28;20118;-76
2024/01/29 06:07:26;;;;;;;8.50;4.38;;;3.50;99.90;;;;;;5142815;27;20043;-76
2024/01/29 06:09:52;;;;;;;6.73;4.53;;;3.50;99.90;;;;;;5091373;27;20032;-75
2024/01/29 06:12:17;;;;;;;5.65;3.95;;;3.50;99.90;;;;;;5111456;27;20281;-75
2024/01/29 06:14:43;;;;;;;7.07;4.57;;;3.50;99.90;;;;;;5109059;28;20052;-76
2024/01/29 06:17:08;;;;;;;7.10;5.10;;;3.60;99.90;;;;;;5116908;27;20499;-76
2024/01/29 06:19:34;;;;;;;7.90;4.82;;;3.60;99.90;;;;;;5130403;27;20051;-76
2024/01/29 06:22:00;;;;;;;7.75;5.03;;;3.60;99.90;;;;;;5128433;27;20080;-75
2024/01/29 06:24:25;;;;;;;7.88;4.18;;;3.70;99.90;;;;;;5129204;27;20484;-75
2024/01/29 06:26:51;;;;;;;7.60;5.40;;;3.70;99.90;;;;;;5128980;27;20050;-76
2024/01/29 06:29:16;;;;;;;7.95;4.80;;;3.70;99.90;;;;;;5102732;28;20324;-76
2024/01/29 06:31:42;;;;;;;6.70;4.80;;;3.70;99.90;;;;;;5155593;27;20124;-77
2024/01/29 06:34:08;;;;;;;9.83;5.03;;;3.70;99.90;;;;;;5128683;27;20276;-77
2024/01/29 06:36:33;;;;;;;8.73;4.78;;;3.70;99.90;;;;;;5128128;27;20053;-77
2024/01/29 06:38:59;;;;;;;6.70;4.70;;;3.70;99.90;;;;;;5128600;27;20047;-77
2024/01/29 06:41:26;;;;;;;7.43;5.03;;;3.70;99.90;;;;;;5128614;27;20031;-76
2024/01/29 06:43:53;;;;;;;8.10;4.68;;;3.70;99.90;;;;;;5128500;27;20075;-77
2024/01/29 06:46:19;;;;;;;6.80;4.70;;;3.70;99.90;;;;;;5128601;27;20039;-77
2024/01/29 06:48:45;;;;;;;5.80;4.38;;;3.70;99.90;;;;;;5128598;27;20043;-77
2024/01/29 06:51:11;;;;;;;7.60;4.30;;;3.70;99.90;;;;;;5128196;27;20141;-77
2024/01/29 06:53:37;;;;;;;;;;;3.60;99.90;;;;;;5129193;27;20047;-76
2024/01/29 06:56:04;;;;;;;7.20;4.93;;;3.60;99.90;;;;;;5128350;27;20691;-76
2024/01/29 06:58:37;;;;;;;6.60;4.97;;;3.60;99.90;;;;;;5128413;27;20054;-76
2024/01/29 07:01:04;;;;;;;8.50;4.85;;;3.60;99.90;;;;;;5127079;27;20055;-77
2024/01/29 07:03:30;;;;;;;6.35;4.78;;;3.50;99.90;;;;;;5125752;27;20054;-76
2024/01/29 07:05:57;;;;;;;7.00;4.88;;;3.50;99.90;;;;;;5126849;27;20043;-75
2024/01/29 07:08:22;;;;;;;8.40;5.45;;;3.50;99.90;;;;;;5122726;27;20031;-75
2024/01/29 07:10:48;;;;;;;6.47;4.97;;;3.50;99.90;;;;;;5128275;27;20168;-75
2024/01/29 07:13:13;;;;;;;6.83;4.87;;;3.50;99.90;;;;;;5129377;27;20179;-75
2024/01/29 07:15:40;;;;;;;7.90;4.80;;;3.50;99.90;;;;;;5126712;27;20062;-76
2024/01/29 07:18:06;;;;;;;8.43;5.00;;;3.50;99.90;;;;;;5127269;27;20292;-76
2024/01/29 07:20:38;;;;;;;5.55;4.28;;;3.50;99.90;;;;;;5126472;27;20047;-76
2024/01/29 07:23:05;;;;;;;7.05;4.65;;;3.40;99.90;;;;;;5127579;28;20055;-76
2024/01/29 07:25:31;;;;;;;;;;;3.40;99.90;;;;;;5129805;27;20066;-76
2024/01/29 07:28:03;;;;;;;6.05;4.30;;;3.40;99.90;;;;;;5123667;27;19919;-76
2024/01/29 07:30:29;;;;;;;6.45;4.15;;;3.40;99.90;;;;;;5129441;27;20549;-75
2024/01/29 07:32:58;;;;;;;8.10;5.10;;;3.50;99.90;;;;;;5127642;27;20065;-75
2024/01/29 07:35:24;;;;;;;6.60;4.57;;;3.50;99.90;;;;;;5126833;28;20042;-78
2024/01/29 07:37:50;;;;;;;7.43;4.93;;;3.50;99.90;;;;;;5127932;27;20043;-78
2024/01/29 07:40:17;;;;;;;6.65;4.40;;;3.50;99.90;;;;;;5109552;28;20061;-78
2024/01/29 07:42:43;;;;;;;6.80;4.63;;;3.50;99.90;;;;;;5128321;27;20543;-78
2024/01/29 07:45:08;;;;;;;7.03;4.78;;;3.50;99.90;;;;;;5131257;27;20039;-76
2024/01/29 07:47:34;;;;;;;6.75;4.60;;;3.60;99.90;;;;;;5130927;27;20047;-76
2024/01/29 07:50:01;;;;;;;6.00;4.38;;;3.60;99.90;;;;;;5131572;27;20043;-76
2024/01/29 07:52:26;;;;;;;;;;;3.60;99.90;;;;;;5133911;27;20092;-76
2024/01/29 07:54:52;;;;;;;7.32;5.30;;;3.60;99.90;;;;;;5131932;27;19919;-77
2024/01/29 07:57:17;;;;;;;7.18;4.70;;;3.70;99.90;;;;;;5132180;27;20421;-76
2024/01/29 07:59:45;;;;;;;6.75;4.63;;;3.70;99.90;;;;;;5132042;27;20051;-77
2024/01/29 08:02:11;;;;;;;7.22;4.50;;;3.70;99.90;;;;;;5114735;27;20074;-76
2024/01/29 08:04:37;;;;;;;7.22;5.07;;;3.70;99.90;;;;;;5127963;27;20144;-76
2024/01/29 08:07:03;;;;;;;5.63;4.53;;;3.80;99.90;;;;;;5131251;27;20046;-77
2024/01/29 08:09:28;;;;;;;8.35;4.78;;;3.80;99.90;;;;;;5131642;27;20463;-76
2024/01/29 08:11:54;;;;;;;8.27;5.67;;;3.80;99.90;;;;;;5132924;27;20509;-76
2024/01/29 08:14:21;;;;;;;8.43;5.20;;;3.90;99.90;;;;;;5131379;27;20043;-77
2024/01/29 08:16:46;;;;;;;;;;;3.90;99.90;;;;;;5130230;27;20054;-76
2024/01/29 08:19:12;;;;;;;7.57;5.30;;;4.00;99.90;;;;;;5131611;27;19920;-76
2024/01/29 08:21:38;;;;;;;10.35;6.00;;;4.10;99.90;;;;;;5131428;27;20383;-76
2024/01/29 08:24:04;;;;;;;9.98;6.10;;;4.10;99.90;;;;;;5131258;27;20055;-76
2024/01/29 08:26:30;;;;;;;7.65;5.45;;;4.20;99.90;;;;;;5131460;27;20043;-76
2024/01/29 08:28:56;;;;;;;10.07;5.85;;;4.30;99.90;;;;;;5132734;27;20046;-76
2024/01/29 08:31:23;;;;;;;6.70;4.70;;;4.40;99.90;;;;;;5129707;27;20313;-77
2024/01/29 08:33:49;;;;;;;7.30;5.30;;;4.40;99.90;;;;;;5165656;27;20128;-77
2024/01/29 08:36:15;;;;;;;10.77;6.10;;;4.50;99.90;;;;;;5114112;27;20039;-77
2024/01/29 08:38:42;;;;;;;7.90;5.90;;;4.50;99.90;;;;;;5114123;27;20047;-77
2024/01/29 08:41:08;;;;;;;8.93;5.68;;;4.60;99.90;;;;;;5129282;27;20035;-76
2024/01/29 08:43:34;;;;;;;;;;;4.60;99.90;;;;;;5131403;27;20102;-77
2024/01/29 08:46:00;;;;;;;9.32;5.75;;;4.70;99.90;;;;;;5132173;27;20452;-77
2024/01/29 08:48:25;;;;;;;8.55;5.75;;;4.70;99.90;;;;;;5130819;27;20039;-76
2024/01/29 08:50:51;;;;;;;8.67;5.80;;;4.70;99.90;;;;;;5131094;27;20047;-76
2024/01/29 08:53:16;;;;;;;11.37;7.07;;;4.80;99.90;;;;;;5114037;27;20277;-76
2024/01/29 08:55:42;;;;;;;8.38;6.13;;;4.90;99.90;;;;;;5130403;27;20486;-76
2024/01/29 08:58:07;;;;;;;7.43;5.68;;;4.90;99.90;;;;;;5129447;27;20047;-76
2024/01/29 09:00:33;;;;;;;8.77;5.97;;;5.00;99.90;;;;;;5129263;27;20042;-76
2024/01/29 09:02:59;;;;;;;8.55;6.45;;;5.00;99.90;;;;;;5129345;27;20345;-75
2024/01/29 09:05:24;;;;;;;9.48;5.97;;;5.10;99.90;;;;;;5128646;27;20199;-75
2024/01/29 09:07:51;;;;;;;8.83;6.60;;;5.20;99.90;;;;;;5129984;27;20043;-75
2024/01/29 09:10:16;;;;;;;;;;;5.20;99.90;;;;;;5128074;27;20353;-76
2024/01/29 09:12:42;;;;;;;8.07;6.07;;;5.20;99.90;;;;;;5128937;27;20366;-76
2024/01/29 09:15:09;;;;;;;10.45;6.60;;;5.30;99.90;;;;;;5128607;27;20047;-76
2024/01/29 09:17:35;;;;;;;;;;;5.30;99.90;;;;;;5129406;27;20051;-76
2024/01/29 09:20:02;;;;;;;9.25;6.35;;;5.30;99.90;;;;;;5131521;27;19919;-77
2024/01/29 09:22:27;;;;;;;9.68;7.13;;;5.40;99.90;;;;;;5131548;27;20442;-76
2024/01/29 09:24:53;;;;;;;9.10;6.83;;;5.40;99.90;;;;;;5128834;27;20051;-76
2024/01/29 09:27:18;;;;;;;11.30;6.40;;;5.50;99.90;;;;;;5130152;27;20296;-76
2024/01/29 09:29:44;;;;;;;10.20;6.07;;;5.50;99.90;;;;;;5129652;27;20505;-77
2024/01/29 09:32:10;;;;;;;10.83;7.50;;;5.50;99.90;;;;;;5130145;27;20357;-76
2024/01/29 09:34:36;;;;;;;10.10;6.22;;;5.50;99.90;;;;;;5128868;27;20710;-76
2024/01/29 09:37:01;;;;;;;8.90;6.43;;;5.60;99.90;;;;;;5163299;27;20035;-76
2024/01/29 09:39:27;;;;;;;9.70;7.00;;;5.60;99.90;;;;;;5129018;27;20035;-77
2024/01/29 09:42:02;;;;;;;10.40;6.67;;;5.60;99.90;;;;;;5129767;27;20944;-77
2024/01/29 09:44:30;;;;;;;8.73;6.53;;;5.60;99.90;;;;;;5129443;27;20100;-76
2024/01/29 09:46:57;;;;;;;11.00;6.60;;;5.70;99.90;;;;;;5128895;27;20088;-75
2024/01/29 09:49:23;;;;;;;8.13;6.07;;;5.70;99.90;;;;;;5127570;27;20110;-75
2024/01/29 09:51:49;;;;;;;10.15;6.47;;;5.80;99.90;;;;;;5129792;27;20035;-75
2024/01/29 09:54:14;;;;;;;10.15;7.05;;;5.80;99.90;;;;;;5128323;27;20038;-76
2024/01/29 09:56:40;;;;;;;10.15;7.03;;;5.80;99.90;;;;;;5129763;27;20070;-76
2024/01/29 09:59:06;;;;;;;11.85;7.13;;;5.80;99.90;;;;;;5127992;27;20065;-76
2024/01/29 10:01:33;;;;;;;8.35;6.50;;;5.90;99.90;;;;;;5130527;27;20499;-76
2024/01/29 10:03:58;;;;;;;11.35;7.45;;;5.90;99.90;;;;;;5128741;27;20043;-75
2024/01/29 10:06:24;;;;;;;8.80;6.60;;;6.00;99.90;;;;;;5120792;27;20361;-76
2024/01/29 10:08:51;;;;;;;8.70;6.47;;;6.10;99.90;;;;;;5155457;27;20337;-76
2024/01/29 10:11:18;;;;;;;12.77;6.70;;;6.10;99.90;;;;;;5126123;27;20342;-76
2024/01/29 10:13:47;;;;;;;11.23;7.85;;;6.20;99.90;;;;;;5121307;27;20058;-77
2024/01/29 10:16:12;;;;;;;9.30;6.72;;;6.30;99.90;;;;;;5127231;27;20091;-76
2024/01/29 10:18:38;;;;;;;9.57;7.00;;;6.40;99.90;;;;;;5125850;27;20531;-76
2024/01/29 10:21:06;;;;;;;10.70;7.43;;;6.50;99.90;;;;;;5127928;27;20031;-76
2024/01/29 10:23:32;;;;;;;9.85;6.70;;;6.60;99.90;;;;;;5128139;27;20058;-76
2024/01/29 10:25:59;;;;;;;10.45;7.18;;;6.70;99.90;;;;;;5127845;27;20054;-76
2024/01/29 10:28:26;;;;;;;11.80;8.40;;;6.80;99.90;;;;;;5128524;27;20495;-76
2024/01/29 10:30:56;;;;;;;10.10;7.45;;;6.90;99.90;;;;;;5130283;27;20035;-76
2024/01/29 10:33:22;;;;;;;10.52;7.68;;;7.00;99.90;;;;;;5130450;27;20046;-76
2024/01/29 10:35:49;;;;;;;11.82;7.97;;;7.00;99.90;;;;;;5128966;27;20047;-76
2024/01/29 10:38:18;;;;;;;8.95;6.43;;;7.10;99.90;;;;;;5127478;27;20043;-76
2024/01/29 10:40:44;;;;;;;10.32;7.20;;;7.20;99.90;;;;;;5126175;27;20069;-76
2024/01/29 10:43:18;;;;;;;13.00;7.95;;;7.30;99.90;;;;;;5128214;27;20047;-76
2024/01/29 10:45:47;;;;;;;10.30;6.93;;;7.30;99.90;;;;;;5130180;27;20035;-76
2024/01/29 10:48:20;;;;;;;11.63;7.93;;;7.40;99.90;;;;;;5127547;27;20042;-76
2024/01/29 10:50:48;;;;;;;10.98;7.88;;;7.40;99.90;;;;;;5127338;27;20118;-76
2024/01/29 10:53:15;;;;;;;10.73;7.28;;;7.40;99.90;;;;;;5128590;27;20074;-76
2024/01/29 10:55:46;;;;;;;11.77;8.07;;;7.50;99.90;;;;;;5128435;27;20493;-76
2024/01/29 10:58:16;;;;;;;11.85;7.55;;;7.50;99.90;;;;;;5104058;28;20043;-76
2024/01/29 11:00:44;;;;;;;10.73;7.65;;;7.50;99.90;;;;;;5107929;28;20051;-76
2024/01/29 11:03:12;;;;;;;12.32;8.15;;;7.50;99.90;;;;;;5124957;27;20143;-76
2024/01/29 11:05:40;;;;;;;10.70;7.90;;;7.50;99.90;;;;;;5090837;28;20043;-76
2024/01/29 11:08:10;;;;;;;12.57;8.85;;;7.50;99.90;;;;;;5107010;27;20091;-76
2024/01/29 11:10:37;;;;;;;11.63;8.88;;;7.60;99.90;;;;;;5107847;28;20046;-76
2024/01/29 11:13:04;;;;;;;11.60;8.27;;;7.60;99.90;;;;;;5144360;27;20542;-76
2024/01/29 11:15:31;;;;;;;13.93;8.52;;;7.70;99.90;;;;;;5120607;27;20043;-76
2024/01/29 11:17:57;;;;;;;13.18;8.43;;;7.80;99.90;;;;;;5110339;27;20105;-77
2024/01/29 11:20:23;;;;;;;17.02;10.13;;;7.80;99.90;;;;;;5127775;27;20179;-76
2024/01/29 11:22:51;;;;;;;14.60;9.40;;;7.80;99.90;;;;;;5127452;27;20046;-76
2024/01/29 11:25:18;;;;;;;14.32;9.75;;;7.90;99.90;;;;;;5127693;28;20043;-76
2024/01/29 11:27:45;;;;;;;14.98;8.75;;;7.80;99.90;;;;;;5129600;27;20078;-76
2024/01/29 11:30:25;;;;;;;12.30;8.68;;;7.90;99.90;;;;;;5128199;28;20096;-76
2024/01/29 11:32:53;;;;;;;12.02;8.95;;;7.90;99.90;;;;;;5129655;27;20378;-76
2024/01/29 11:35:20;;;;;;;11.40;8.48;;;7.90;99.90;;;;;;5162748;27;20046;-76
2024/01/29 11:37:49;;;;;;;12.77;8.23;;;8.00;99.90;;;;;;5127806;27;20031;-76
2024/01/29 11:40:34;;;;;;;13.07;8.25;;;8.00;99.90;;;;;;5127751;27;20081;-77
2024/01/29 11:43:02;;;;;;;13.48;8.40;;;8.00;99.90;;;;;;5125453;28;20058;-76
2024/01/29 11:45:29;;;;;;;12.35;8.65;;;8.00;99.90;;;;;;5126189;27;20047;-76
2024/01/29 11:47:55;;;;;;;11.48;8.13;;;8.10;99.90;;;;;;5108874;28;20586;-77
2024/01/29 11:50:21;;;;;;;13.30;9.45;;;8.10;99.90;;;;;;5125570;27;20146;-76
2024/01/29 11:52:46;;;;;;;13.68;9.32;;;8.10;99.90;;;;;;5128037;28;20043;-76
2024/01/29 11:55:14;;;;;;;13.57;8.63;;;8.10;99.90;;;;;;5110163;28;20043;-76
2024/01/29 11:57:44;;;;;;;11.68;8.68;;;8.20;99.90;;;;;;5110738;27;20039;-76
2024/01/29 12:00:10;;;;;;;14.90;9.05;;;8.30;99.90;;;;;;5129371;27;20407;-76
2024/01/29 12:02:36;;;;;;;13.77;8.30;;;8.30;99.90;;;;;;5126046;28;20051;-76
2024/01/29 12:05:02;;;;;;;16.60;10.32;;;8.40;99.90;;;;;;5127098;28;20372;-76
2024/01/29 12:07:28;;;;;;;18.17;9.98;;;8.40;99.90;;;;;;5162452;27;20123;-76
2024/01/29 12:09:54;;;;;;;21.05;11.20;;;8.40;99.90;;;;;;5126162;27;20051;-76
2024/01/29 12:12:19;;;;;;;17.65;9.65;;;8.30;99.90;;;;;;5158469;27;20047;-77
2024/01/29 12:14:45;;;;;;;19.00;11.75;;;8.30;99.90;;;;;;5127847;27;20040;-77
2024/01/29 12:17:12;;;;;;;15.70;9.88;;;8.30;99.90;;;;;;5127625;28;20120;-77
2024/01/29 12:19:38;;;;;;;16.88;10.25;;;8.30;99.90;;;;;;5126972;27;20121;-76
2024/01/29 12:22:04;;;;;;;20.00;10.32;;;8.30;99.90;;;;;;5126765;28;20150;-76
2024/01/29 12:24:30;;;;;;;18.58;9.98;;;8.30;99.90;;;;;;5159570;27;20084;-77
2024/01/29 12:26:56;;;;;;;20.63;11.43;;;8.30;99.90;;;;;;5103087;28;20058;-76
2024/01/29 12:29:21;;;;;;;21.98;11.38;;;8.30;99.90;;;;;;5109575;28;20051;-76
2024/01/29 12:31:47;;;;;;;20.70;11.05;;;8.20;99.90;;;;;;5124256;27;20123;-77
2024/01/29 12:34:26;;;;;;;19.35;10.52;;;8.20;99.90;;;;;;5110523;27;20051;-76
2024/01/29 12:36:53;;;;;;;25.98;10.70;;;8.20;99.90;;;;;;5111002;28;20122;-76
2024/01/29 12:39:19;;;;;;;20.23;10.90;;;8.20;99.90;;;;;;5110238;28;20060;-76
2024/01/29 12:41:44;;;;;;;20.77;10.77;;;8.20;99.90;;;;;;5124682;27;20050;-76
2024/01/29 12:44:11;;;;;;;17.35;9.98;;;8.20;99.90;;;;;;5165731;27;20039;-77
2024/01/29 12:46:37;;;;;;;22.17;11.23;;;8.20;99.90;;;;;;5131257;27;20043;-76
2024/01/29 12:49:05;;;;;;;21.10;11.52;;;8.20;99.90;;;;;;5130118;27;20084;-76